world map with BHJ marked

BHJ - Airport

This information may not be accurate or current and is not valid for navigation or flight planning. No warranty of fitness for any purpose is made or implied.

flag of India

Donate via PayPal

Additional information is available on the NEW Great Circle Mapper

Location
City:  Bhuj, Gujarat, India
ICAO / IATA:VABJ / BHJ

Details
Type:Airport (Aerodrome, Airfield)
Use:Public/Civil, Military
Latitude:23°17'16"N (23.287828)
Longitude:69°40'13"E (69.670147)
Datum:WGS 1984
Elevation:268 ft (82 m)
Runways:1
Longest:8205 × 150 ft (2501 × 45.5 m)

Time
Timezone:UTC+5:30 (DST+7:30)
Local Time:

Weather
METAR:VABJ  (expired)
TAF:VABJ  120500Z 1206/1215 34006KT 5000 HZFU SCT080 BECMG 1212/1214 02005KT 4000 FUHZ FEW100

Related Locations
Nearby:
Farthest:IPC: 12158 mi / 19566 km
Easter Island (Isla de Pascua, Rapa Nui) [Mataveri Intl], VS, CL

Find:

   beyond  
but within

Other Information
Maps:
Sources:

  


 


Great Circle Mapper   Great Circle Mapper
Great Circle Mapper FAQ   Great Circle Mapper FAQ
  Karl's Home Page
KLSē   KLSē Home
   GC on Facebook
Airlines of the World   Airlines of the World
Donate via PayPal


Copyright © 2004-2017, Karl L. Swartz. All rights reserved.
All trademarks mentioned herein belong to their respective owners.

Please see credits for attribution and copyright information.

Karl Swartz <karl@kls2.com>
  Powered by FreeBSD
Valid HTML 4.01!
Labeled with ICRA
hCard Microformat
Geo Microformat